| time (UTC) | temp F | wind direction | speed MPH | gust MPH | rain 1hr in | rain 24hr in | rain mn in | humidity % | barometer mb |
| 20260507222300 | 36 | 320 | 2.0 | 14.0 | 0.00 | 0.00 | 0.00 | 99 | |
| 20260507211959 | 36 | 250 | 5.0 | 0.0 | 0.00 | 0.00 | 0.00 | 99 | |
| 20260507202000 | 37 | 260 | 7.0 | 0.0 | 0.00 | 0.00 | 0.00 | 99 | |
| 20260507192101 | 37 | 280 | 16.0 | 0.0 | 0.00 | 0.00 | 0.00 | 99 | |
| 20260507181957 | 39 | 260 | 9.0 | 0.0 | 0.00 | 0.00 | 0.00 | 99 | |
| 20260507171958 | 39 | 240 | 9.0 | 0.0 | 0.00 | 0.00 | 0.00 | 99 | |
| 20260507162259 | 39 | 250 | 9.0 | 0.0 | 0.00 | 0.00 | 0.00 | 99 | |
| 20260507151958 | 39 | 230 | 9.0 | 22.0 | 0.00 | 0.00 | 0.00 | 99 | |
| 20260507141959 | 41 | 260 | 12.0 | 26.0 | 0.00 | 0.00 | 0.00 | 99 | |
| 20260507132101 | 39 | 300 | 7.0 | 0.0 | 0.00 | 0.00 | 0.00 | 99 | |
| 20260507121958 | 41 | 270 | 9.0 | 20.0 | 0.00 | 0.00 | 0.00 | 99 | |
| 20260507112027 | 39 | 260 | 9.0 | 22.0 | 0.00 | 0.00 | 0.00 | 99 | |
| 20260507102158 | 39 | 220 | 16.0 | 29.0 | 0.00 | 0.00 | 0.00 | 99 | |
| 20260507091959 | 39 | 230 | 12.0 | 29.0 | 0.00 | 0.00 | 0.00 | 99 | |
| 20260507081958 | 39 | 280 | 12.0 | 26.0 | 0.00 | 0.00 | 0.00 | 99 | |
| 20260507071958 | 39 | 240 | 16.0 | 29.0 | 0.00 | 0.00 | 0.00 | 99 | |
| 20260507061958 | 39 | 240 | 14.0 | 24.0 | 0.00 | 0.00 | 0.00 | 99 | |
| 20260507051958 | 41 | 310 | 7.0 | 0.0 | 0.00 | 0.00 | 0.00 | 99 | |
| 20260507042202 | 39 | 210 | 7.0 | 0.0 | 0.00 | 0.00 | 0.00 | 99 | |
| 20260507031958 | 41 | 220 | 12.0 | 24.0 | 0.00 | 0.00 | 0.00 | 99 | |
| 20260507021957 | 41 | 250 | 9.0 | 0.0 | 0.00 | 0.00 | 0.00 | 99 | |
| 20260507012058 | 41 | 270 | 14.0 | 31.0 | 0.00 | 0.00 | 0.00 | 93 | |
| 20260507001958 | 41 | 250 | 18.0 | 29.0 | 0.00 | 0.00 | 0.00 | 99 | |
| 20260506231958 | 41 | 240 | 18.0 | 36.0 | 0.00 | 0.00 | 0.00 | 99 |